createdAt,value
2023-04-27T00:00:56.672Z,11.10
2023-04-27T00:03:27.040Z,11.11
2023-04-27T00:05:57.335Z,11.12
2023-04-27T00:08:27.433Z,11.14
2023-04-27T00:10:57.521Z,11.11
2023-04-27T00:13:30.375Z,11.13
2023-04-27T00:16:03.451Z,11.11
2023-04-27T00:18:33.852Z,11.09
2023-04-27T00:21:04.073Z,11.06
2023-04-27T00:23:34.083Z,11.05
2023-04-27T00:26:04.308Z,11.03
2023-04-27T00:28:36.955Z,10.95
2023-04-27T00:31:07.578Z,10.92
2023-04-27T00:33:37.727Z,10.89
2023-04-27T00:36:08.607Z,10.86
2023-04-27T00:38:38.684Z,10.88
2023-04-27T00:41:10.737Z,10.90
2023-04-27T00:43:48.625Z,10.91
2023-04-27T00:46:20.260Z,10.92
2023-04-27T00:48:51.247Z,10.87
2023-04-27T00:51:21.525Z,10.88
2023-04-27T00:53:55.562Z,10.82
2023-04-27T00:56:25.982Z,10.80
2023-04-27T00:58:58.958Z,10.81
2023-04-27T01:01:29.897Z,10.79
2023-04-27T01:04:00.178Z,10.81
2023-04-27T01:06:32.049Z,10.80
2023-04-27T01:09:02.097Z,10.80
2023-04-27T01:11:32.244Z,10.87
2023-04-27T01:14:07.492Z,10.87
2023-04-27T01:16:38.157Z,10.84
2023-04-27T01:19:08.325Z,10.87
2023-04-27T01:21:38.455Z,10.95
2023-04-27T01:24:12.777Z,10.99
2023-04-27T01:26:42.763Z,11.01
2023-04-27T01:29:13.991Z,10.98
2023-04-27T01:31:44.820Z,10.93
2023-04-27T01:34:14.965Z,10.90
2023-04-27T01:36:44.987Z,10.89
2023-04-27T01:39:17.874Z,10.85
2023-04-27T01:41:47.903Z,10.80
2023-04-27T01:44:18.220Z,10.75
2023-04-27T01:46:48.436Z,10.73
2023-04-27T01:49:18.681Z,10.77
2023-04-27T01:51:48.886Z,10.79
2023-04-27T01:54:22.373Z,10.78
2023-04-27T01:56:52.699Z,10.76
2023-04-27T01:59:22.842Z,10.70
2023-04-27T02:01:52.949Z,10.72
2023-04-27T02:04:23.250Z,10.79
2023-04-27T02:06:53.489Z,10.83
2023-04-27T02:09:26.130Z,10.79
2023-04-27T02:11:56.201Z,10.78
2023-04-27T02:14:26.279Z,10.74
2023-04-27T02:16:56.391Z,10.68
2023-04-27T02:19:26.464Z,10.67
2023-04-27T02:21:56.591Z,10.71
2023-04-27T02:24:29.282Z,10.79
2023-04-27T02:26:59.468Z,10.82
2023-04-27T02:29:33.419Z,10.83
2023-04-27T02:32:03.998Z,10.85
2023-04-27T02:34:35.425Z,10.83
2023-04-27T02:37:06.322Z,10.80
2023-04-27T02:39:39.008Z,10.76
2023-04-27T02:42:09.708Z,10.78
2023-04-27T02:44:40.702Z,10.75
2023-04-27T02:47:10.926Z,10.72
2023-04-27T02:49:41.191Z,10.66
2023-04-27T02:52:11.367Z,10.64
2023-04-27T02:54:44.106Z,10.58
2023-04-27T02:57:14.183Z,10.54
2023-04-27T02:59:44.355Z,10.58
2023-04-27T03:02:14.509Z,10.57
2023-04-27T03:04:44.722Z,10.54
2023-04-27T03:07:15.082Z,10.57
2023-04-27T03:09:47.871Z,10.59
2023-04-27T03:12:17.901Z,10.63
2023-04-27T03:14:47.994Z,10.57
2023-04-27T03:17:18.198Z,10.56
2023-04-27T03:19:51.942Z,10.54
2023-04-27T03:22:22.022Z,10.52
2023-04-27T03:24:54.977Z,10.53
2023-04-27T04:05:47.336Z,10.30
2023-04-27T04:08:17.940Z,10.28
2023-04-27T04:10:48.018Z,10.32
2023-04-27T04:13:18.314Z,10.30
2023-04-27T04:15:48.989Z,10.33
2023-04-27T04:18:19.094Z,10.39
2023-04-27T04:20:52.214Z,10.35
2023-04-27T04:23:22.449Z,10.37
2023-04-27T04:25:52.889Z,10.40
2023-04-27T04:28:24.032Z,10.41
2023-04-27T04:30:55.010Z,10.48
2023-04-27T04:33:26.475Z,10.56
2023-04-27T04:35:59.207Z,10.55
2023-04-27T04:38:29.443Z,10.52
2023-04-27T04:40:59.543Z,10.58
2023-04-27T04:43:33.009Z,10.63
2023-04-27T04:46:06.621Z,10.64
2023-04-27T04:48:37.822Z,10.68
2023-04-27T04:51:10.842Z,10.62
2023-04-27T04:53:40.997Z,10.58
2023-04-27T04:56:15.080Z,10.62
2023-04-27T04:58:45.402Z,10.63
2023-04-27T05:01:15.598Z,10.70
2023-04-27T05:03:45.847Z,10.78
2023-04-27T05:06:18.622Z,10.81
2023-04-27T05:08:48.741Z,10.90
2023-04-27T05:11:18.862Z,11.00
2023-04-27T05:13:48.844Z,11.09
2023-04-27T05:16:18.895Z,11.17
2023-04-27T05:18:48.972Z,11.20
2023-04-27T05:21:22.362Z,11.20
2023-04-27T05:23:52.584Z,11.19
2023-04-27T05:26:22.669Z,11.24
2023-04-27T05:28:52.850Z,11.25
2023-04-27T05:31:23.151Z,11.34
2023-04-27T05:33:53.271Z,11.40
2023-04-27T05:36:27.240Z,11.38
2023-04-27T05:38:59.822Z,11.47
2023-04-27T05:41:29.883Z,11.62
2023-04-27T05:44:00.020Z,11.71
2023-04-27T05:46:30.212Z,11.79
2023-04-27T05:49:00.307Z,11.86
2023-04-27T05:51:36.259Z,11.99
2023-04-27T05:54:06.501Z,12.05
2023-04-27T05:56:38.030Z,12.12
2023-04-27T05:59:08.259Z,12.23
2023-04-27T06:01:38.392Z,12.44
2023-04-27T06:04:08.558Z,12.72
2023-04-27T06:06:41.356Z,12.91
2023-04-27T06:09:11.605Z,13.09
2023-04-27T06:11:41.864Z,13.32
2023-04-27T06:14:12.079Z,13.44
2023-04-27T06:16:45.205Z,13.54
2023-04-27T06:19:15.685Z,13.50
2023-04-27T06:21:48.540Z,13.44
2023-04-27T06:24:19.399Z,13.34
2023-04-27T06:26:49.533Z,13.37
2023-04-27T06:29:19.711Z,13.48
2023-04-27T06:31:49.948Z,13.96
2023-04-27T06:34:20.039Z,14.40
2023-04-27T06:36:52.753Z,14.56
2023-04-27T06:39:22.860Z,14.56
2023-04-27T06:41:54.057Z,14.60
2023-04-27T06:44:24.114Z,14.70
2023-04-27T06:46:54.196Z,14.67
2023-04-27T06:49:24.415Z,14.62
2023-04-27T06:52:00.376Z,14.47
2023-04-27T06:54:30.643Z,14.39
2023-04-27T06:57:00.763Z,14.65
2023-04-27T06:59:30.766Z,14.86
2023-04-27T07:02:01.081Z,15.49
2023-04-27T07:04:31.312Z,16.43
2023-04-27T07:07:04.056Z,17.14
2023-04-27T07:09:34.362Z,17.50
2023-04-27T07:12:04.665Z,17.44
2023-04-27T07:14:34.701Z,17.03
2023-04-27T07:17:04.907Z,16.76
2023-04-27T07:19:35.092Z,16.87
2023-04-27T07:22:07.776Z,17.46
2023-04-27T07:24:37.820Z,17.84
2023-04-27T07:27:08.362Z,18.39
2023-04-27T07:29:38.443Z,19.25
2023-04-27T07:32:09.687Z,19.95
2023-04-27T07:34:52.731Z,20.42
2023-04-27T07:37:28.936Z,20.07
2023-04-27T07:39:59.726Z,19.68
2023-04-27T07:42:29.819Z,20.00
2023-04-27T07:45:00.180Z,19.14
2023-04-27T07:47:30.200Z,18.18
2023-04-27T07:50:00.705Z,18.28
2023-04-27T07:52:33.421Z,18.65
2023-04-27T07:55:04.058Z,18.99
2023-04-27T07:57:34.257Z,19.99
2023-04-27T08:00:06.785Z,20.00
2023-04-27T08:02:43.143Z,19.84
2023-04-27T08:05:14.179Z,20.36
2023-04-27T08:07:47.799Z,20.58
2023-04-27T08:10:18.740Z,19.56
2023-04-27T08:12:48.804Z,18.70
2023-04-27T08:15:19.105Z,18.36
2023-04-27T08:17:49.379Z,19.16
2023-04-27T08:20:20.980Z,19.29
2023-04-27T08:22:54.163Z,18.80
2023-04-27T08:25:24.528Z,18.98
2023-04-27T08:27:55.598Z,19.25
2023-04-27T08:30:26.118Z,19.99
2023-04-27T08:32:56.885Z,20.65
2023-04-27T08:35:27.049Z,20.86
2023-04-27T08:37:59.675Z,20.97
2023-04-27T08:40:29.931Z,20.38
2023-04-27T08:43:01.301Z,19.52
2023-04-27T08:45:31.772Z,19.03
2023-04-27T08:48:01.868Z,18.60
2023-04-27T08:50:32.690Z,18.30
2023-04-27T08:53:05.424Z,19.18
2023-04-27T08:55:35.885Z,19.01
2023-04-27T08:58:06.425Z,18.33
2023-04-27T09:00:42.476Z,17.18
2023-04-27T09:03:25.072Z,16.38
2023-04-27T09:06:03.715Z,16.13
2023-04-27T09:08:48.035Z,15.97
2023-04-27T09:11:19.611Z,15.81
2023-04-27T09:13:50.242Z,15.74
2023-04-27T09:16:30.037Z,16.45
2023-04-27T09:19:02.861Z,17.72
2023-04-27T09:21:44.156Z,19.03
2023-04-27T09:24:20.534Z,18.87
2023-04-27T09:26:55.829Z,18.49
2023-04-27T09:29:35.891Z,17.96
2023-04-27T09:32:17.115Z,17.40
2023-04-27T09:34:51.729Z,17.03
2023-04-27T09:37:27.580Z,16.68
2023-04-27T09:40:09.841Z,16.39
2023-04-27T09:42:44.715Z,16.27
2023-04-27T09:45:15.530Z,16.23
2023-04-27T09:47:46.705Z,16.38
2023-04-27T09:50:21.905Z,16.85
2023-04-27T09:52:55.754Z,17.16
2023-04-27T09:55:36.509Z,17.17
2023-04-27T09:58:27.135Z,16.86
2023-04-27T10:01:07.851Z,16.51
2023-04-27T10:03:50.728Z,16.10
2023-04-27T10:06:57.653Z,15.98
2023-04-27T10:09:31.971Z,16.72
2023-04-27T10:12:23.876Z,18.35
2023-04-27T10:14:55.773Z,18.68
2023-04-27T10:17:33.133Z,18.16
2023-04-27T10:20:05.081Z,17.65
2023-04-27T10:22:43.236Z,17.28
2023-04-27T10:25:21.849Z,17.17
2023-04-27T10:27:56.838Z,17.03
2023-04-27T10:30:30.727Z,16.98
2023-04-27T10:33:02.572Z,17.04
2023-04-27T10:35:39.677Z,17.18
2023-04-27T10:38:11.315Z,18.90
2023-04-27T10:40:41.782Z,20.76
2023-04-27T10:43:18.442Z,22.18
2023-04-27T10:45:49.073Z,23.17
2023-04-27T10:48:19.331Z,24.31
2023-04-27T10:50:49.695Z,25.64
2023-04-27T10:53:19.821Z,25.17
2023-04-27T10:55:49.857Z,23.78
2023-04-27T10:58:34.604Z,22.62
2023-04-27T11:01:15.322Z,21.51
2023-04-27T11:03:49.123Z,20.62
2023-04-27T11:06:20.383Z,19.72
2023-04-27T11:08:50.733Z,19.22
2023-04-27T11:11:21.028Z,18.91
2023-04-27T11:13:56.937Z,18.51
2023-04-27T11:16:27.217Z,18.91
2023-04-27T11:19:00.932Z,21.32
2023-04-27T11:21:32.477Z,22.59
2023-04-27T11:24:07.182Z,22.37
2023-04-27T11:26:37.406Z,21.38
2023-04-27T11:29:14.458Z,20.34
2023-04-27T11:31:48.795Z,19.63
2023-04-27T11:34:19.818Z,19.20
2023-04-27T11:37:16.760Z,18.65
2023-04-27T11:39:48.646Z,18.28
2023-04-27T11:42:21.348Z,17.98
2023-04-27T11:45:00.024Z,17.62
2023-04-27T11:47:35.450Z,17.34
2023-04-27T11:50:08.125Z,17.09
2023-04-27T11:52:40.259Z,16.99
2023-04-27T11:55:16.402Z,16.91
2023-04-27T11:57:46.695Z,16.77
2023-04-27T12:00:20.839Z,16.73
2023-04-27T12:02:51.179Z,16.77
2023-04-27T12:05:23.687Z,16.84
2023-04-27T12:07:58.417Z,17.06
2023-04-27T12:10:28.660Z,17.18
2023-04-27T12:12:58.913Z,17.29
2023-04-27T12:15:34.207Z,17.32
2023-04-27T12:18:04.429Z,17.23
2023-04-27T12:20:34.524Z,17.14
2023-04-27T12:23:04.709Z,17.23
2023-04-27T12:25:34.833Z,17.51
2023-04-27T12:28:04.945Z,17.87
2023-04-27T12:30:38.005Z,17.86
2023-04-27T12:33:11.355Z,17.85
2023-04-27T12:35:41.522Z,17.96
2023-04-27T12:38:11.705Z,17.97
2023-04-27T12:40:41.886Z,17.83
2023-04-27T12:43:12.975Z,17.83
2023-04-27T12:45:45.920Z,17.71
2023-04-27T12:48:17.558Z,17.50
2023-04-27T12:50:48.013Z,17.42
2023-04-27T12:53:18.115Z,17.52
2023-04-27T12:55:49.182Z,17.64
2023-04-27T12:58:19.575Z,18.00
2023-04-27T13:00:52.344Z,19.55
2023-04-27T13:03:22.531Z,20.43
2023-04-27T13:05:52.964Z,20.42
2023-04-27T13:08:23.290Z,20.34
2023-04-27T13:10:53.444Z,20.17
2023-04-27T13:13:23.640Z,19.91
2023-04-27T13:15:56.589Z,19.62
2023-04-27T13:18:26.876Z,19.63
2023-04-27T13:20:58.291Z,19.90
2023-04-27T13:23:28.786Z,20.85
2023-04-27T13:25:59.147Z,21.11
2023-04-27T13:28:29.302Z,20.77
2023-04-27T13:31:02.072Z,20.47
2023-04-27T13:33:32.293Z,20.36
2023-04-27T13:36:04.053Z,21.25
2023-04-27T13:38:34.142Z,21.76
2023-04-27T13:41:04.407Z,21.58
2023-04-27T13:43:34.772Z,21.11
2023-04-27T13:46:07.827Z,20.71
2023-04-27T13:48:37.945Z,20.22
2023-04-27T13:51:08.192Z,19.91
2023-04-27T13:53:38.573Z,19.58
2023-04-27T13:56:09.431Z,19.25
2023-04-27T13:58:41.390Z,18.85
2023-04-27T14:01:14.122Z,18.53
2023-04-27T14:03:44.621Z,18.25
2023-04-27T14:06:15.235Z,18.00
2023-04-27T14:08:45.350Z,17.94
2023-04-27T14:11:15.953Z,17.98
2023-04-27T14:13:46.511Z,18.00
2023-04-27T14:16:19.306Z,17.75
2023-04-27T14:18:49.523Z,17.63
2023-04-27T14:21:34.528Z,17.66
2023-04-27T14:24:04.680Z,17.73
2023-04-27T14:26:34.828Z,17.66
2023-04-27T14:29:05.000Z,17.59
2023-04-27T14:31:38.076Z,17.52
2023-04-27T14:34:08.564Z,17.71
2023-04-27T14:36:39.363Z,17.90
2023-04-27T14:39:09.901Z,18.07
2023-04-27T14:41:40.191Z,18.25
2023-04-27T14:44:11.376Z,18.24
2023-04-27T14:46:44.235Z,18.16
2023-04-27T14:49:14.842Z,17.91
2023-04-27T14:51:45.346Z,17.69
2023-04-27T14:54:18.453Z,17.62
2023-04-27T14:56:49.360Z,17.48
2023-04-27T14:59:19.589Z,17.49
2023-04-27T15:01:52.515Z,17.52
2023-04-27T15:04:23.219Z,17.46
2023-04-27T15:06:53.492Z,17.49
2023-04-27T15:09:23.574Z,17.60
2023-04-27T15:11:53.608Z,17.59
2023-04-27T15:14:23.748Z,17.54
2023-04-27T15:16:56.814Z,17.37
2023-04-27T15:19:26.982Z,17.17
2023-04-27T15:21:57.148Z,17.07
2023-04-27T15:24:27.262Z,16.95
2023-04-27T15:26:57.421Z,16.82
2023-04-27T15:29:31.265Z,16.66
2023-04-27T15:32:04.179Z,16.48
2023-04-27T15:34:34.284Z,16.49
2023-04-27T15:37:04.383Z,16.73
2023-04-27T15:39:34.516Z,16.96
2023-04-27T15:42:04.720Z,17.12
2023-04-27T15:44:34.967Z,16.82
2023-04-27T15:47:08.330Z,16.76
2023-04-27T15:49:53.675Z,16.80
2023-04-27T15:52:34.564Z,16.66
2023-04-27T15:55:04.698Z,16.46
2023-04-27T15:57:34.787Z,16.39
2023-04-27T16:00:07.076Z,16.29
2023-04-27T16:02:43.962Z,16.19
2023-04-27T16:05:17.295Z,16.06
2023-04-27T16:07:48.454Z,15.99
2023-04-27T16:10:21.014Z,15.95
2023-04-27T16:12:51.248Z,15.75
2023-04-27T16:15:22.853Z,15.62
2023-04-27T16:17:55.786Z,15.43
2023-04-27T16:20:29.045Z,15.30
2023-04-27T16:22:59.156Z,15.33
2023-04-27T16:25:29.600Z,15.31
2023-04-27T16:28:01.688Z,15.31
2023-04-27T16:30:31.787Z,15.23
2023-04-27T16:33:04.629Z,15.12
2023-04-27T16:35:34.870Z,15.09
2023-04-27T16:38:06.174Z,15.14
2023-04-27T16:40:36.876Z,15.28
2023-04-27T16:43:07.288Z,15.45
2023-04-27T16:45:38.737Z,15.48
2023-04-27T16:48:12.594Z,15.43
2023-04-27T16:50:43.055Z,15.30
2023-04-27T16:53:21.296Z,15.27
2023-04-27T16:55:51.533Z,15.36
2023-04-27T16:58:22.361Z,15.45
2023-04-27T17:00:52.828Z,15.53
2023-04-27T17:03:26.236Z,15.41
2023-04-27T17:05:56.666Z,15.38
2023-04-27T17:08:26.968Z,15.50
2023-04-27T17:10:57.156Z,15.67
2023-04-27T17:13:28.103Z,15.75
2023-04-27T17:16:01.102Z,15.79
2023-04-27T17:18:34.272Z,15.78
2023-04-27T17:21:04.437Z,15.72
2023-04-27T17:23:34.764Z,15.69
2023-04-27T17:26:07.862Z,15.71
2023-04-27T17:28:38.206Z,15.60
2023-04-27T17:31:09.647Z,15.54
2023-04-27T17:33:43.695Z,15.54
2023-04-27T17:36:15.162Z,15.56
2023-04-27T17:38:46.605Z,15.54
2023-04-27T17:41:16.650Z,15.49
2023-04-27T17:43:46.965Z,15.46
2023-04-27T17:46:17.287Z,15.42
2023-04-27T17:48:49.995Z,15.38
2023-04-27T17:51:20.390Z,15.30
2023-04-27T17:53:50.609Z,15.16
2023-04-27T17:56:20.917Z,15.06
2023-04-27T17:58:51.222Z,14.86
2023-04-27T18:01:21.783Z,14.65
2023-04-27T18:03:54.888Z,14.49
2023-04-27T18:06:25.129Z,14.40
2023-04-27T18:08:55.146Z,14.38
2023-04-27T18:11:25.294Z,14.31
2023-04-27T18:13:58.036Z,14.21
2023-04-27T18:16:28.371Z,14.13
2023-04-27T18:19:01.121Z,14.10
2023-04-27T18:21:31.900Z,14.04
2023-04-27T18:24:02.048Z,13.95
2023-04-27T18:26:32.963Z,13.87
2023-04-27T18:29:03.264Z,13.78
2023-04-27T18:31:33.618Z,13.71
2023-04-27T18:34:06.654Z,13.67
2023-04-27T18:36:36.821Z,13.60
2023-04-27T18:39:07.081Z,13.53
2023-04-27T18:41:37.189Z,13.42
2023-04-27T18:44:08.096Z,13.34
2023-04-27T18:46:39.025Z,13.31
2023-04-27T18:49:12.426Z,13.25
2023-04-27T18:51:42.941Z,13.23
2023-04-27T18:54:13.203Z,13.20
2023-04-27T18:56:43.565Z,13.14
2023-04-27T18:59:14.027Z,13.03
2023-04-27T19:01:44.568Z,12.97
2023-04-27T19:04:17.505Z,12.96
2023-04-27T19:06:47.963Z,12.97
2023-04-27T19:09:18.358Z,12.94
2023-04-27T19:11:56.122Z,12.91
2023-04-27T19:14:32.442Z,12.88
2023-04-27T19:17:08.505Z,12.84
2023-04-27T19:19:53.093Z,12.76
2023-04-27T19:22:23.224Z,12.62
2023-04-27T19:24:53.404Z,12.56
2023-04-27T19:27:23.476Z,12.55
2023-04-27T19:29:55.153Z,12.49
2023-04-27T19:32:27.340Z,12.44
2023-04-27T19:35:01.378Z,12.42
2023-04-27T19:37:31.678Z,12.40
2023-04-27T19:40:01.813Z,12.36
2023-04-27T19:42:32.208Z,12.32
2023-04-27T19:45:04.025Z,12.24
2023-04-27T19:47:34.248Z,12.12
2023-04-27T19:50:07.708Z,12.06
2023-04-27T19:52:37.925Z,12.00
2023-04-27T19:55:08.700Z,12.01
2023-04-27T19:57:39.280Z,12.02
2023-04-27T20:00:12.361Z,11.94
2023-04-27T20:02:45.324Z,11.83
2023-04-27T20:05:18.238Z,11.88
2023-04-27T20:07:50.147Z,11.92
2023-04-27T20:10:22.836Z,11.95
2023-04-27T20:12:57.145Z,11.94
2023-04-27T20:15:27.889Z,11.95
2023-04-27T20:17:58.235Z,11.92
2023-04-27T20:20:35.809Z,11.90
2023-04-27T20:23:06.262Z,11.86
2023-04-27T20:25:37.847Z,11.83
2023-04-27T20:28:08.189Z,11.81
2023-04-27T20:30:38.380Z,11.66
2023-04-27T20:33:08.866Z,11.51
2023-04-27T20:35:42.692Z,11.50
2023-04-27T20:38:13.351Z,11.41
2023-04-27T20:40:43.543Z,11.33
2023-04-27T20:43:13.775Z,11.33
2023-04-27T20:45:44.160Z,11.27
2023-04-27T20:48:14.417Z,11.28
2023-04-27T20:50:47.102Z,11.28
2023-04-27T20:53:17.528Z,11.26
2023-04-27T20:55:47.806Z,11.19
2023-04-27T20:58:19.647Z,10.99
2023-04-27T21:00:52.811Z,10.97
2023-04-27T21:03:23.133Z,10.95
2023-04-27T21:05:58.944Z,10.98
2023-04-27T21:08:29.244Z,11.00
2023-04-27T21:10:59.447Z,11.00
2023-04-27T21:13:29.600Z,11.01
2023-04-27T21:15:59.652Z,11.00
2023-04-27T21:18:30.722Z,10.97
2023-04-27T21:21:03.804Z,10.93
2023-04-27T21:23:40.751Z,10.92
2023-04-27T21:26:11.288Z,10.88
2023-04-27T21:28:42.092Z,10.87
2023-04-27T21:31:12.706Z,10.86
2023-04-27T21:33:42.968Z,10.83
2023-04-27T21:36:15.662Z,10.76
2023-04-27T21:38:48.096Z,10.64
2023-04-27T21:41:18.406Z,10.59
2023-04-27T21:43:48.755Z,10.56
2023-04-27T21:46:20.913Z,10.59
2023-04-27T21:48:53.804Z,10.60
2023-04-27T21:51:29.536Z,10.62
2023-04-27T21:53:59.756Z,10.61
2023-04-27T21:56:29.837Z,10.55
2023-04-27T21:59:00.207Z,10.50
2023-04-27T22:01:31.053Z,10.47
2023-04-27T22:04:02.317Z,10.47
2023-04-27T22:06:35.983Z,10.40
2023-04-27T22:09:08.163Z,10.39
2023-04-27T22:11:38.391Z,10.42
2023-04-27T22:14:08.593Z,10.42
2023-04-27T22:16:38.842Z,10.43
2023-04-27T22:19:09.385Z,10.38
2023-04-27T22:21:42.034Z,10.38
2023-04-27T22:24:12.141Z,10.32
2023-04-27T22:26:42.181Z,10.27
2023-04-27T22:29:12.369Z,10.24
2023-04-27T22:31:43.072Z,10.17
2023-04-27T22:34:15.097Z,10.15
2023-04-27T22:36:48.182Z,10.03
2023-04-27T22:39:18.381Z,9.90
2023-04-27T22:41:48.794Z,9.84
2023-04-27T22:44:18.874Z,9.82
2023-04-27T22:46:48.957Z,9.88
2023-04-27T22:49:19.361Z,9.94
2023-04-27T22:51:54.149Z,9.97
2023-04-27T22:54:24.601Z,9.99
2023-04-27T22:56:54.694Z,10.01
2023-04-27T22:59:25.558Z,10.00
2023-04-27T23:01:55.702Z,10.01
2023-04-27T23:04:26.710Z,9.98
2023-04-27T23:06:59.702Z,10.00
2023-04-27T23:09:29.902Z,10.05
2023-04-27T23:12:01.216Z,10.01
2023-04-27T23:14:46.451Z,9.98
2023-04-27T23:17:17.185Z,9.94
2023-04-27T23:19:47.241Z,9.87
2023-04-27T23:22:19.909Z,9.78
2023-04-27T23:24:50.172Z,9.70
2023-04-27T23:27:20.511Z,9.68
2023-04-27T23:29:50.589Z,9.66
2023-04-27T23:32:20.713Z,9.64
2023-04-27T23:34:51.032Z,9.58
2023-04-27T23:37:25.073Z,9.57
2023-04-27T23:39:55.255Z,9.52
2023-04-27T23:42:25.346Z,9.51
2023-04-27T23:44:55.998Z,9.44
2023-04-27T23:47:26.260Z,9.38
2023-04-27T23:49:56.534Z,9.35
2023-04-27T23:52:29.455Z,9.29
2023-04-27T23:55:00.527Z,9.21
2023-04-27T23:57:30.549Z,9.19
